Time;durP1;ratioP1;P1;durP2;ratioP2;P2;SDS_P1;SDS_P2;PMS_P1;PMS_P2;Temp;Humidity;BMP_temperature;BMP_pressure;BME280_temperature;BME280_humidity;BME280_pressure;Samples;Min_cycle;Max_cycle;Signal;HPM_P1;HPM_P2
2024/04/12 00:02:07;;;;;;;;;21.00;19.50;;;;;26.98;32.66;102050.89;244421;1186;87335;-63
2024/04/12 00:07:17;;;;;;;;;18.33;18.33;;;;;26.97;32.74;102051.83;244471;1182;87676;-63
2024/04/12 00:12:25;;;;;;;;;18.00;18.00;;;;;26.97;32.58;102054.14;244457;1184;87309;-63
2024/04/12 00:17:31;;;;;;;;;18.50;18.00;;;;;26.96;32.74;102054.29;244429;1186;88886;-63
2024/04/12 00:22:38;;;;;;;;;16.50;15.50;;;;;26.96;32.85;102053.66;244439;1186;89058;-63
2024/04/12 00:27:41;;;;;;;;;18.00;16.00;;;;;26.95;32.80;102054.27;244409;1183;87887;-63
2024/04/12 00:32:56;;;;;;;;;18.00;17.50;;;;;26.94;32.77;102054.41;244430;1194;88272;-63
2024/04/12 00:38:03;;;;;;;;;16.67;16.67;;;;;26.94;32.90;102054.40;244488;1186;89264;-63
2024/04/12 00:43:11;;;;;;;;;16.00;16.00;;;;;26.93;32.73;102059.60;244432;1186;88026;-63
2024/04/12 00:48:15;;;;;;;;;18.00;18.00;;;;;26.93;32.78;102059.70;244417;1183;87223;-62
2024/04/12 00:53:22;;;;;;;;;19.25;18.25;;;;;26.92;32.68;102061.60;243823;1186;88094;-63
2024/04/12 00:58:59;;;;;;;;;18.00;18.00;;;;;26.89;32.78;102061.86;242528;1186;87748;-62
2024/04/12 01:04:20;;;;;;;;;16.00;16.00;;;;;26.91;32.70;102072.46;242667;1184;88983;-62
2024/04/12 01:09:56;;;;;;;;;18.50;17.50;;;;;26.92;32.68;102077.06;243018;1185;87591;-63
2024/04/12 01:15:07;;;;;;;;;19.00;18.00;;;;;26.93;32.77;102079.29;243156;1185;88458;-63
2024/04/12 01:20:43;;;;;;;;;17.00;17.00;;;;;26.93;32.85;102080.01;242234;1185;88737;-65
2024/04/12 01:25:47;;;;;;;;;17.50;17.50;;;;;26.93;32.62;102077.86;242613;1180;89533;-64
2024/04/12 01:31:28;;;;;;;;;17.00;17.00;;;;;26.92;32.74;102079.00;243803;1185;88189;-62
2024/04/12 01:37:00;;;;;;;;;;;;;;;26.92;32.83;102075.30;242746;1182;88009;-62
2024/04/12 01:42:37;;;;;;;;;16.67;16.67;;;;;26.92;32.83;102071.45;243064;1186;88962;-64
2024/04/12 01:47:56;;;;;;;;;18.00;18.00;;;;;26.91;32.80;102064.52;243055;1180;87224;-62
2024/04/12 01:53:37;;;;;;;;;19.00;18.00;;;;;26.91;32.77;102064.90;243248;1186;89292;-64
2024/04/12 01:58:54;;;;;;;;;18.00;18.00;;;;;26.90;32.75;102063.42;242511;1186;88680;-63
2024/04/12 02:04:34;;;;;;;;;17.00;17.00;;;;;26.90;32.74;102074.41;243214;1186;88409;-62
2024/04/12 02:09:50;;;;;;;;;18.50;16.50;;;;;26.89;32.86;102079.89;243039;1187;88086;-62
2024/04/12 02:15:27;;;;;;;;;16.00;16.00;;;;;26.87;32.86;102078.42;243106;1186;88214;-63
2024/04/12 02:20:36;;;;;;;;;18.33;18.33;;;;;26.86;32.80;102083.93;242948;1181;88013;-62
2024/04/12 02:26:11;;;;;;;;;17.50;17.50;;;;;26.85;32.62;102087.98;242980;1186;87920;-62
2024/04/12 02:31:19;;;;;;;;;19.00;19.00;;;;;26.83;32.66;102092.38;242796;1180;88573;-64
2024/04/12 02:36:54;;;;;;;;;16.00;16.00;;;;;26.83;32.68;102097.07;243312;1185;88296;-64
2024/04/12 02:42:17;;;;;;;;;14.00;13.33;;;;;26.81;32.83;102095.94;242552;1185;88549;-63
2024/04/12 02:47:53;;;;;;;;;15.00;15.00;;;;;26.82;32.69;102097.11;243293;1185;87982;-64
2024/04/12 02:53:05;;;;;;;;;18.00;18.00;;;;;26.82;32.76;102097.38;242873;1186;88124;-63
2024/04/12 02:58:44;;;;;;;;;16.00;16.00;;;;;26.82;32.65;102097.16;243246;1182;88841;-64
2024/04/12 03:03:54;;;;;;;;;15.33;15.33;;;;;26.81;32.70;102103.51;243064;1183;87949;-62
2024/04/12 03:09:05;;;;;;;;;16.50;16.50;;;;;26.80;32.47;102111.09;242851;1187;88557;-66
2024/04/12 03:14:13;;;;;;;;;17.67;17.67;;;;;26.80;32.55;102120.30;243138;1185;87383;-63
2024/04/12 03:19:47;;;;;;;;;17.50;16.25;;;;;26.80;32.50;102119.63;243123;1186;88111;-63
2024/04/12 03:24:51;;;;;;;;;17.00;17.00;;;;;26.79;32.55;102126.52;242869;1185;88050;-64
2024/04/12 03:30:25;;;;;;;;;14.00;14.00;;;;;26.74;32.07;102132.05;243501;1186;88717;-63
2024/04/12 03:36:25;;;;;;;;;17.00;17.00;;;;;26.71;32.25;102134.69;242912;1185;88578;-64
2024/04/12 03:41:24;;;;;;;;;16.00;14.67;;;;;26.59;31.47;102137.32;242490;1185;87218;-64
2024/04/12 03:46:31;;;;;;;;;20.00;19.50;;;;;26.43;31.43;102144.96;242884;1180;87584;-63
2024/04/12 03:52:11;;;;;;;;;17.33;17.33;;;;;26.30;31.47;102149.35;243304;1186;88907;-64
2024/04/12 03:57:34;;;;;;;;;17.33;17.00;;;;;26.19;31.19;102147.85;243054;1181;88988;-64
2024/04/12 04:03:10;;;;;;;;;19.00;18.50;;;;;26.11;31.14;102152.33;243179;1180;89069;-64
2024/04/12 04:08:19;;;;;;;;;19.00;18.00;;;;;26.03;30.94;102156.88;242771;1183;88668;-63
2024/04/12 04:13:53;;;;;;;;;19.00;17.00;;;;;25.98;31.05;102158.86;243242;1186;87687;-64
2024/04/12 04:19:12;;;;;;;;;21.00;18.50;;;;;25.91;31.04;102162.38;242381;1192;88649;-64
2024/04/12 04:24:47;;;;;;;;;;;;;;;25.83;30.85;102170.70;242837;1186;88608;-64
2024/04/12 04:30:25;;;;;;;;;20.00;19.00;;;;;25.73;30.88;102172.77;242018;1187;88270;-63
2024/04/12 04:35:33;;;;;;;;;17.00;17.00;;;;;25.68;31.01;102176.59;239655;1186;88436;-63
2024/04/12 04:41:08;;;;;;;;;18.00;18.00;;;;;25.72;30.98;102183.90;241857;1182;88719;-64
2024/04/12 04:46:28;;;;;;;;;18.33;18.33;;;;;25.81;30.81;102188.39;241440;1182;91508;-64
2024/04/12 04:51:33;;;;;;;;;16.00;16.00;;;;;25.92;31.49;102193.33;244100;1182;87901;-63
2024/04/12 04:56:39;;;;;;;;;15.67;14.67;;;;;26.16;32.26;102189.30;244047;1182;88119;-63
2024/04/12 05:01:49;;;;;;;;;17.00;16.00;;;;;26.44;32.98;102189.03;244052;1187;87884;-67
2024/04/12 05:06:53;;;;;;;;;20.25;17.00;;;;;26.76;33.74;102187.24;243632;1182;88312;-64
2024/04/12 05:11:59;;;;;;;;;18.25;16.25;;;;;27.06;34.18;102190.11;244008;1182;58519;-61
2024/04/12 05:17:07;;;;;;;;;18.25;16.25;;;;;27.32;35.75;102198.21;244068;1187;88829;-61
2024/04/12 05:22:11;;;;;;;;;18.67;18.33;;;;;27.56;35.88;102192.37;244205;1182;87745;-58
2024/04/12 05:27:14;;;;;;;;;19.00;18.00;;;;;27.71;35.83;102189.27;244181;1182;87795;-62
2024/04/12 05:32:20;;;;;;;;;20.67;16.33;;;;;27.85;36.31;102188.14;244162;1184;58387;-63
2024/04/12 05:37:23;;;;;;;;;21.00;18.00;;;;;27.96;36.21;102183.79;244078;1182;88530;-61
2024/04/12 05:42:26;;;;;;;;;17.00;16.00;;;;;28.10;36.22;102184.33;244101;1182;58440;-60
2024/04/12 05:47:29;;;;;;;;;18.00;17.00;;;;;28.18;36.45;102188.30;244075;1182;58776;-61
2024/04/12 05:52:34;;;;;;;;;18.50;14.50;;;;;28.27;36.27;102188.83;244025;1182;58354;-61
2024/04/12 05:57:43;;;;;;;;;18.50;14.50;;;;;28.30;34.37;102191.43;243961;1187;87595;-62
2024/04/12 06:02:46;;;;;;;;;17.50;15.50;;;;;28.03;32.13;102194.25;243985;1181;88575;-61
2024/04/12 06:07:49;;;;;;;;;14.75;13.50;;;;;27.97;34.23;102197.13;243621;1184;59448;-61
2024/04/12 06:13:39;;;;;;;;;17.00;15.00;;;;;28.12;35.57;102205.61;243155;1182;88472;-63
2024/04/12 06:24:54;;;;;;;;;17.00;14.00;;;;;28.27;33.84;102202.85;244072;1182;87973;-59
2024/04/12 06:30:00;;;;;;;;;18.33;15.33;;;;;28.33;33.28;102205.98;244083;1187;87688;-57
2024/04/12 06:35:12;;;;;;;;;13.75;13.25;;;;;28.35;32.65;102205.16;244083;1184;89036;-60
2024/04/12 06:40:28;;;;;;;;;15.00;11.50;;;;;28.37;32.20;102207.88;244035;1184;88132;-60
